createdAt,value
2019-03-27T00:02:26.505Z,16.74
2019-03-27T00:04:59.211Z,16.72
2019-03-27T00:07:31.829Z,16.72
2019-03-27T00:10:04.631Z,16.68
2019-03-27T00:12:39.912Z,16.65
2019-03-27T00:15:13.943Z,16.53
2019-03-27T00:17:47.201Z,16.54
2019-03-27T00:20:20.084Z,16.48
2019-03-27T00:22:52.794Z,16.46
2019-03-27T00:25:25.553Z,16.46
2019-03-27T00:27:58.174Z,16.46
2019-03-27T00:30:30.906Z,16.46
2019-03-27T00:33:03.539Z,16.42
2019-03-27T00:35:37.006Z,16.49
2019-03-27T00:38:11.873Z,16.39
2019-03-27T00:40:45.809Z,16.39
2019-03-27T00:43:18.495Z,16.26
2019-03-27T00:45:51.213Z,16.23
2019-03-27T00:48:24.455Z,16.20
2019-03-27T00:50:57.113Z,16.15
2019-03-27T00:53:29.770Z,16.11
2019-03-27T00:56:02.440Z,16.09
2019-03-27T00:58:35.184Z,16.07
2019-03-27T01:01:10.445Z,16.04
2019-03-27T01:03:43.310Z,16.05
2019-03-27T01:06:19.058Z,15.96
2019-03-27T01:08:52.197Z,15.87
2019-03-27T01:11:26.535Z,15.79
2019-03-27T01:13:59.150Z,15.84
2019-03-27T01:16:31.748Z,15.82
2019-03-27T01:19:04.542Z,15.71
2019-03-27T01:22:07.190Z,15.66
2019-03-27T01:24:47.157Z,15.62
2019-03-27T01:27:35.415Z,15.57
2019-03-27T01:30:57.070Z,15.42
2019-03-27T01:33:48.903Z,15.36
2019-03-27T01:36:27.257Z,15.23
2019-03-27T01:38:59.932Z,14.98
2019-03-27T01:41:34.704Z,14.80
2019-03-27T01:44:08.020Z,14.76
2019-03-27T01:46:43.305Z,14.78
2019-03-27T01:49:18.599Z,14.85
2019-03-27T01:52:52.975Z,14.94
2019-03-27T01:55:37.599Z,15.02
2019-03-27T01:58:19.793Z,14.94
2019-03-27T02:00:59.714Z,14.93
2019-03-27T02:03:33.862Z,14.89
2019-03-27T02:06:07.220Z,14.81
2019-03-27T02:08:39.834Z,14.75
2019-03-27T02:11:12.443Z,14.69
2019-03-27T02:13:45.048Z,14.56
2019-03-27T02:16:20.069Z,14.39
2019-03-27T02:19:19.022Z,14.30
2019-03-27T02:22:20.262Z,14.13
2019-03-27T02:25:26.893Z,14.01
2019-03-27T02:28:24.039Z,13.87
2019-03-27T02:31:19.438Z,13.74
2019-03-27T02:34:12.641Z,13.63
2019-03-27T02:36:46.917Z,13.58
2019-03-27T02:39:35.245Z,13.48
2019-03-27T02:42:16.034Z,13.41
2019-03-27T02:48:52.638Z,13.52
2019-03-27T02:51:36.482Z,13.64
2019-03-27T02:54:09.496Z,13.76
2019-03-27T02:56:42.287Z,13.64
2019-03-27T02:59:14.909Z,13.49
2019-03-27T03:02:03.465Z,13.33
2019-03-27T03:05:04.953Z,13.21
2019-03-27T03:07:40.868Z,13.08
2019-03-27T03:10:27.529Z,13.02
2019-03-27T03:13:00.156Z,13.11
2019-03-27T03:15:41.373Z,13.25
2019-03-27T03:18:16.658Z,13.38
2019-03-27T03:20:55.892Z,13.29
2019-03-27T03:23:37.203Z,13.16
2019-03-27T03:26:09.896Z,13.00
2019-03-27T03:28:43.983Z,12.94
2019-03-27T03:31:19.794Z,12.83
2019-03-27T03:34:42.464Z,12.87
2019-03-27T03:37:20.818Z,12.85
2019-03-27T03:39:53.438Z,12.73
2019-03-27T03:42:26.065Z,12.81
2019-03-27T03:44:58.682Z,12.86
2019-03-27T03:47:32.495Z,12.95
2019-03-27T03:50:05.502Z,13.07
2019-03-27T03:52:38.408Z,13.18
2019-03-27T03:55:28.333Z,13.27
2019-03-27T04:01:23.127Z,13.20
2019-03-27T04:04:04.868Z,13.23
2019-03-27T04:06:51.491Z,13.17
2019-03-27T04:09:34.941Z,13.08
2019-03-27T04:12:17.081Z,13.03
2019-03-27T04:14:49.728Z,13.07
2019-03-27T04:20:16.650Z,12.89
2019-03-27T04:23:06.954Z,13.01
2019-03-27T04:26:00.413Z,12.99
2019-03-27T04:28:09.672Z,12.75
2019-03-27T04:30:43.887Z,12.60
2019-03-27T04:33:16.509Z,12.49
2019-03-27T04:35:49.133Z,12.34
2019-03-27T04:38:21.758Z,12.36
2019-03-27T04:40:54.368Z,12.44
2019-03-27T04:43:27.017Z,12.45
2019-03-27T04:46:04.737Z,12.35
2019-03-27T04:48:37.698Z,12.28
2019-03-27T04:51:10.338Z,12.23
2019-03-27T04:53:42.959Z,12.24
2019-03-27T04:56:15.602Z,12.27
2019-03-27T04:58:48.210Z,12.33
2019-03-27T05:01:20.816Z,12.39
2019-03-27T05:03:54.210Z,12.54
2019-03-27T05:06:26.847Z,12.59
2019-03-27T05:08:59.508Z,12.51
2019-03-27T05:11:32.802Z,12.39
2019-03-27T05:14:05.538Z,12.32
2019-03-27T05:16:38.148Z,12.21
2019-03-27T05:19:10.909Z,12.16
2019-03-27T05:21:43.659Z,12.04
2019-03-27T05:24:16.279Z,12.13
2019-03-27T05:26:49.019Z,12.28
2019-03-27T05:29:23.664Z,12.31
2019-03-27T05:31:56.277Z,12.26
2019-03-27T05:34:28.932Z,12.21
2019-03-27T05:37:01.555Z,12.22
2019-03-27T05:39:37.986Z,12.17
2019-03-27T05:42:10.740Z,12.07
2019-03-27T05:44:43.365Z,12.04
2019-03-27T05:47:16.003Z,12.01
2019-03-27T05:49:49.106Z,11.93
2019-03-27T05:52:24.122Z,11.85
2019-03-27T05:54:56.787Z,11.74
2019-03-27T05:57:29.395Z,11.59
2019-03-27T06:00:03.022Z,11.54
2019-03-27T06:02:36.937Z,11.52
2019-03-27T06:05:09.637Z,11.54
2019-03-27T06:07:42.342Z,11.57
2019-03-27T06:10:16.495Z,11.58
2019-03-27T06:12:49.426Z,11.43
2019-03-27T06:15:22.162Z,11.41
2019-03-27T06:17:54.783Z,11.23
2019-03-27T06:20:27.417Z,11.12
2019-03-27T06:23:00.163Z,11.03
2019-03-27T06:25:33.190Z,11.02
2019-03-27T06:28:08.005Z,11.06
2019-03-27T06:30:40.609Z,11.12
2019-03-27T06:33:13.596Z,11.11
2019-03-27T06:35:46.644Z,11.03
2019-03-27T06:38:20.477Z,10.83
2019-03-27T06:40:53.086Z,10.73
2019-03-27T06:43:25.796Z,10.73
2019-03-27T06:45:58.646Z,10.72
2019-03-27T06:48:32.484Z,10.63
2019-03-27T06:51:06.729Z,10.58
2019-03-27T06:53:39.338Z,10.65
2019-03-27T06:56:11.968Z,10.79
2019-03-27T06:58:54.550Z,10.87
2019-03-27T07:01:18.893Z,11.06
2019-03-27T07:03:51.515Z,11.18
2019-03-27T07:06:24.586Z,11.20
2019-03-27T07:08:57.197Z,11.28
2019-03-27T07:11:29.832Z,11.28
2019-03-27T07:14:04.550Z,11.37
2019-03-27T07:16:37.210Z,11.48
2019-03-27T07:19:09.872Z,11.57
2019-03-27T07:21:42.482Z,11.66
2019-03-27T07:24:15.118Z,11.86
2019-03-27T07:26:47.741Z,12.02
2019-03-27T07:29:20.345Z,12.19
2019-03-27T07:31:52.968Z,12.31
2019-03-27T07:34:26.052Z,12.49
2019-03-27T07:36:58.676Z,12.66
2019-03-27T07:39:31.342Z,12.87
2019-03-27T07:42:04.499Z,12.94
2019-03-27T07:44:37.152Z,13.14
2019-03-27T07:47:09.845Z,13.30
2019-03-27T07:49:43.590Z,13.50
2019-03-27T07:52:16.204Z,13.85
2019-03-27T07:54:48.846Z,14.80
2019-03-27T07:57:21.608Z,16.76
2019-03-27T07:59:54.189Z,18.52
2019-03-27T08:02:26.886Z,19.57
2019-03-27T08:04:59.520Z,21.00
2019-03-27T08:07:32.877Z,20.88
2019-03-27T08:10:06.164Z,22.12
2019-03-27T08:12:38.795Z,22.87
2019-03-27T08:15:11.737Z,23.20
2019-03-27T08:17:44.344Z,22.63
2019-03-27T08:20:17.362Z,22.80
2019-03-27T08:22:50.015Z,22.21
2019-03-27T08:25:22.639Z,22.49
2019-03-27T08:28:26.348Z,22.21
2019-03-27T08:35:05.878Z,21.49
2019-03-27T08:37:40.181Z,22.96
2019-03-27T08:40:13.455Z,23.59
2019-03-27T08:42:46.109Z,24.24
2019-03-27T08:45:18.975Z,23.81
2019-03-27T08:47:51.603Z,25.70
2019-03-27T08:50:24.279Z,25.52
2019-03-27T08:52:56.903Z,26.08
2019-03-27T08:55:29.577Z,26.08
2019-03-27T08:58:04.724Z,26.39
2019-03-27T09:01:02.299Z,24.91
2019-03-27T09:03:36.213Z,24.06
2019-03-27T09:06:08.840Z,24.23
2019-03-27T09:08:41.497Z,24.03
2019-03-27T09:11:14.119Z,24.59
2019-03-27T09:13:46.799Z,24.01
2019-03-27T09:16:19.774Z,24.88
2019-03-27T09:18:52.504Z,24.90
2019-03-27T09:21:25.153Z,26.23
2019-03-27T09:23:57.767Z,25.05
2019-03-27T09:26:30.405Z,24.86
2019-03-27T09:29:03.168Z,24.00
2019-03-27T09:31:44.791Z,24.18
2019-03-27T09:34:10.092Z,23.44
2019-03-27T09:36:42.730Z,23.79
2019-03-27T09:39:15.422Z,24.48
2019-03-27T09:41:48.074Z,25.03
2019-03-27T09:44:20.672Z,24.71
2019-03-27T09:46:53.288Z,25.56
2019-03-27T09:49:25.931Z,25.50
2019-03-27T09:51:58.560Z,25.82
2019-03-27T09:54:31.185Z,26.52
2019-03-27T09:57:04.651Z,25.91
2019-03-27T09:59:37.366Z,25.87
2019-03-27T10:02:10.465Z,27.06
2019-03-27T10:04:43.091Z,26.99
2019-03-27T10:07:15.898Z,25.74
2019-03-27T10:09:50.373Z,26.08
2019-03-27T10:12:23.120Z,26.32
2019-03-27T10:14:56.744Z,26.52
2019-03-27T10:17:29.352Z,26.90
2019-03-27T10:20:03.621Z,26.72
2019-03-27T10:22:36.417Z,26.78
2019-03-27T10:25:11.175Z,27.45
2019-03-27T10:27:43.785Z,26.49
2019-03-27T10:30:16.607Z,27.48
2019-03-27T10:32:49.288Z,26.71
2019-03-27T10:35:21.897Z,26.89
2019-03-27T10:37:54.535Z,26.76
2019-03-27T10:40:27.160Z,27.88
2019-03-27T10:42:59.765Z,28.53
2019-03-27T10:45:33.583Z,28.56
2019-03-27T10:48:06.314Z,28.56
2019-03-27T10:50:38.923Z,28.48
2019-03-27T10:53:11.574Z,28.47
2019-03-27T10:55:46.092Z,26.77
2019-03-27T10:58:18.826Z,27.51
2019-03-27T11:00:51.506Z,28.00
2019-03-27T11:03:24.187Z,28.09
2019-03-27T11:05:56.801Z,28.28
2019-03-27T11:08:29.423Z,29.17
2019-03-27T11:11:02.045Z,29.63
2019-03-27T11:13:35.788Z,29.71
2019-03-27T11:16:08.428Z,29.96
2019-03-27T11:18:41.044Z,30.78
2019-03-27T11:21:13.695Z,30.29
2019-03-27T11:23:46.303Z,30.94
2019-03-27T11:26:19.027Z,30.75
2019-03-27T11:28:52.649Z,30.78
2019-03-27T11:31:25.286Z,29.32
2019-03-27T11:33:58.578Z,30.21
2019-03-27T11:36:31.543Z,29.06
2019-03-27T11:39:05.678Z,29.06
2019-03-27T11:41:38.294Z,29.58
2019-03-27T11:44:12.713Z,29.05
2019-03-27T11:46:45.213Z,28.98
2019-03-27T11:49:18.005Z,29.43
2019-03-27T11:51:50.792Z,29.43
2019-03-27T11:54:23.370Z,30.06
2019-03-27T11:56:55.982Z,31.38
2019-03-27T11:59:28.965Z,32.23
2019-03-27T12:02:01.683Z,32.21
2019-03-27T12:04:34.646Z,32.08
2019-03-27T12:07:09.128Z,31.49
2019-03-27T12:09:41.750Z,31.45
2019-03-27T12:12:14.516Z,32.09
2019-03-27T12:14:47.128Z,30.24
2019-03-27T12:17:20.090Z,30.15
2019-03-27T12:19:52.719Z,29.16
2019-03-27T12:22:25.441Z,29.16
2019-03-27T12:24:59.123Z,27.43
2019-03-27T12:27:31.858Z,26.55
2019-03-27T12:30:07.425Z,25.67
2019-03-27T12:32:40.269Z,24.70
2019-03-27T12:35:12.989Z,24.10
2019-03-27T12:37:45.714Z,23.92
2019-03-27T12:40:18.573Z,23.45
2019-03-27T12:42:51.264Z,23.33
2019-03-27T12:45:23.879Z,23.58
2019-03-27T12:47:56.591Z,23.57
2019-03-27T12:50:29.333Z,23.87
2019-03-27T12:53:01.957Z,23.93
2019-03-27T12:55:34.609Z,23.62
2019-03-27T12:58:07.320Z,23.28
2019-03-27T13:00:40.241Z,23.52
2019-03-27T13:03:13.039Z,24.06
2019-03-27T13:05:45.673Z,24.22
2019-03-27T13:08:18.379Z,23.81
2019-03-27T13:10:51.180Z,23.89
2019-03-27T13:13:23.792Z,24.05
2019-03-27T13:15:56.389Z,23.88
2019-03-27T13:18:29.034Z,24.04
2019-03-27T13:21:01.686Z,23.81
2019-03-27T13:23:34.716Z,24.21
2019-03-27T13:26:07.538Z,24.20
2019-03-27T13:28:48.738Z,24.49
2019-03-27T13:31:14.987Z,24.47
2019-03-27T13:33:50.212Z,24.47
2019-03-27T13:36:21.979Z,24.29
2019-03-27T13:38:54.631Z,24.28
2019-03-27T13:41:27.284Z,24.37
2019-03-27T13:43:59.895Z,24.11
2019-03-27T13:46:32.513Z,23.94
2019-03-27T13:49:06.303Z,24.13
2019-03-27T13:51:41.183Z,24.14
2019-03-27T13:54:13.893Z,24.16
2019-03-27T13:56:46.529Z,24.21
2019-03-27T13:59:19.299Z,24.32
2019-03-27T14:01:51.990Z,23.90
2019-03-27T14:04:24.694Z,24.13
2019-03-27T14:06:57.369Z,24.24
2019-03-27T14:09:29.998Z,23.92
2019-03-27T14:12:02.777Z,24.09
2019-03-27T14:14:49.256Z,23.94
2019-03-27T14:17:10.592Z,23.95
2019-03-27T14:19:43.413Z,24.01
2019-03-27T14:22:16.062Z,23.53
2019-03-27T14:24:48.729Z,23.53
2019-03-27T14:27:21.545Z,23.82
2019-03-27T14:29:54.210Z,23.80
2019-03-27T14:32:26.840Z,23.70
2019-03-27T14:34:59.466Z,24.08
2019-03-27T14:37:32.132Z,24.17
2019-03-27T14:40:08.191Z,24.07
2019-03-27T14:42:40.806Z,23.90
2019-03-27T14:45:14.000Z,24.01
2019-03-27T14:47:46.703Z,23.87
2019-03-27T14:50:19.349Z,24.02
2019-03-27T14:52:51.995Z,23.88
2019-03-27T14:55:24.614Z,23.84
2019-03-27T14:57:57.273Z,23.77
2019-03-27T15:00:29.907Z,23.63
2019-03-27T15:03:02.826Z,23.62
2019-03-27T15:05:37.882Z,23.82
2019-03-27T15:08:12.416Z,23.89
2019-03-27T15:10:45.157Z,23.98
2019-03-27T15:13:17.806Z,23.84
2019-03-27T15:15:50.418Z,23.83
2019-03-27T15:18:23.064Z,23.93
2019-03-27T15:20:55.750Z,24.00
2019-03-27T15:23:28.485Z,23.81
2019-03-27T15:26:01.646Z,23.86
2019-03-27T15:28:34.365Z,23.87
2019-03-27T15:31:19.742Z,24.04
2019-03-27T15:33:41.449Z,24.01
2019-03-27T15:36:14.203Z,23.86
2019-03-27T15:38:46.829Z,23.66
2019-03-27T15:41:19.479Z,23.55
2019-03-27T15:43:52.165Z,23.49
2019-03-27T15:46:24.817Z,23.48
2019-03-27T15:48:57.423Z,23.53
2019-03-27T15:51:30.087Z,23.44
2019-03-27T15:54:02.857Z,23.41
2019-03-27T15:56:38.369Z,23.32
2019-03-27T15:59:10.097Z,23.24
2019-03-27T16:01:42.851Z,23.41
2019-03-27T16:04:17.294Z,23.47
2019-03-27T16:06:49.941Z,23.57
2019-03-27T16:09:22.764Z,23.55
2019-03-27T16:11:55.548Z,23.48
2019-03-27T16:14:28.154Z,23.31
2019-03-27T16:17:12.773Z,23.21
2019-03-27T16:19:35.169Z,23.18
2019-03-27T16:22:07.971Z,23.27
2019-03-27T16:24:40.822Z,23.10
2019-03-27T16:27:13.431Z,23.01
2019-03-27T16:29:46.116Z,23.03
2019-03-27T16:32:18.876Z,23.13
2019-03-27T16:34:51.528Z,23.14
2019-03-27T16:37:24.193Z,23.20
2019-03-27T16:39:56.797Z,23.32
2019-03-27T16:42:29.816Z,23.41
2019-03-27T16:45:02.570Z,23.36
2019-03-27T16:47:35.521Z,23.21
2019-03-27T16:50:10.711Z,23.32
2019-03-27T16:52:43.370Z,23.29
2019-03-27T16:55:16.004Z,23.16
2019-03-27T16:57:51.275Z,23.12
2019-03-27T17:00:22.981Z,23.08
2019-03-27T17:02:55.652Z,22.96
2019-03-27T17:05:28.665Z,23.20
2019-03-27T17:08:01.276Z,23.24
2019-03-27T17:10:35.673Z,23.10
2019-03-27T17:13:08.309Z,23.10
2019-03-27T17:15:41.135Z,22.98
2019-03-27T17:18:13.866Z,22.96
2019-03-27T17:20:46.525Z,23.11
2019-03-27T17:23:19.687Z,23.24
2019-03-27T17:25:52.569Z,23.15
2019-03-27T17:28:25.719Z,23.20
2019-03-27T17:30:58.413Z,23.18
2019-03-27T17:33:31.451Z,23.02
2019-03-27T17:36:05.654Z,22.93
2019-03-27T17:38:38.390Z,22.75
2019-03-27T17:41:10.872Z,22.56
2019-03-27T17:43:43.571Z,22.46
2019-03-27T17:46:16.228Z,22.41
2019-03-27T17:48:48.933Z,22.27
2019-03-27T17:51:22.534Z,22.24
2019-03-27T17:53:55.239Z,22.13
2019-03-27T17:56:27.907Z,22.04
2019-03-27T17:59:00.519Z,21.89
2019-03-27T18:01:33.307Z,21.76
2019-03-27T18:04:06.992Z,21.66
2019-03-27T18:06:39.644Z,21.50
2019-03-27T18:09:12.363Z,21.51
2019-03-27T18:11:44.998Z,21.35
2019-03-27T18:14:17.650Z,21.29
2019-03-27T18:16:50.364Z,21.27
2019-03-27T18:19:23.026Z,21.16
2019-03-27T18:22:06.968Z,21.14
2019-03-27T18:24:30.097Z,21.08
2019-03-27T18:27:03.304Z,21.02
2019-03-27T18:29:35.966Z,20.90
2019-03-27T18:32:09.741Z,20.73
2019-03-27T18:34:42.392Z,20.64
2019-03-27T18:37:15.059Z,20.52
2019-03-27T18:39:49.483Z,20.40
2019-03-27T18:42:22.361Z,20.25
2019-03-27T18:44:54.994Z,20.07
2019-03-27T18:47:27.707Z,19.91
2019-03-27T18:50:00.496Z,19.75
2019-03-27T18:52:33.214Z,19.61
2019-03-27T18:55:07.813Z,19.46
2019-03-27T18:57:40.480Z,19.37
2019-03-27T19:00:13.783Z,19.31
2019-03-27T19:02:46.904Z,19.18
2019-03-27T19:05:19.552Z,19.06
2019-03-27T19:07:52.211Z,18.95
2019-03-27T19:10:25.403Z,18.89
2019-03-27T19:12:58.132Z,18.76
2019-03-27T19:15:30.760Z,18.58
2019-03-27T19:18:03.482Z,18.46
2019-03-27T19:20:36.113Z,18.38
2019-03-27T19:23:08.766Z,18.23
2019-03-27T19:25:41.405Z,18.16
2019-03-27T19:28:15.764Z,18.01
2019-03-27T19:30:48.661Z,17.81
2019-03-27T19:33:21.408Z,17.66
2019-03-27T19:35:54.031Z,17.48
2019-03-27T19:38:26.694Z,17.31
2019-03-27T19:40:59.359Z,17.37
2019-03-27T19:43:32.108Z,17.22
2019-03-27T19:46:04.784Z,17.03
2019-03-27T19:48:37.471Z,16.91
2019-03-27T19:51:11.474Z,16.82
2019-03-27T19:53:44.220Z,16.76
2019-03-27T19:56:17.016Z,16.68
2019-03-27T19:58:49.750Z,16.51
2019-03-27T20:01:22.444Z,16.60
2019-03-27T20:03:55.089Z,16.66
2019-03-27T20:06:28.209Z,16.54
2019-03-27T20:09:01.299Z,16.47
2019-03-27T20:11:35.196Z,16.18
2019-03-27T20:14:08.839Z,16.01
2019-03-27T20:16:41.569Z,15.85
2019-03-27T20:19:14.363Z,15.79
2019-03-27T20:21:47.114Z,15.62
2019-03-27T20:24:19.800Z,15.54
2019-03-27T20:26:52.480Z,15.44
2019-03-27T20:29:25.567Z,15.23
2019-03-27T20:31:58.325Z,15.00
2019-03-27T20:34:31.122Z,14.94
2019-03-27T20:37:04.090Z,14.83
2019-03-27T20:39:42.497Z,14.80
2019-03-27T20:42:14.815Z,14.66
2019-03-27T20:44:47.631Z,14.39
2019-03-27T20:47:20.249Z,14.38
2019-03-27T20:49:53.362Z,14.44
2019-03-27T20:52:26.022Z,14.47
2019-03-27T20:54:58.770Z,14.38
2019-03-27T20:57:31.405Z,14.38
2019-03-27T21:00:06.413Z,14.27
2019-03-27T21:02:39.400Z,14.28
2019-03-27T21:05:12.236Z,14.15
2019-03-27T21:07:44.902Z,14.00
2019-03-27T21:10:19.363Z,13.88
2019-03-27T21:12:51.979Z,13.84
2019-03-27T21:15:24.584Z,13.71
2019-03-27T21:17:57.246Z,13.56
2019-03-27T21:20:29.872Z,13.48
2019-03-27T21:23:02.606Z,13.44
2019-03-27T21:25:41.926Z,13.41
2019-03-27T21:28:14.565Z,13.40
2019-03-27T21:30:47.729Z,13.18
2019-03-27T21:33:20.455Z,13.06
2019-03-27T21:35:53.087Z,13.09
2019-03-27T21:38:25.781Z,13.11
2019-03-27T21:40:58.855Z,13.06
2019-03-27T21:43:31.505Z,13.03
2019-03-27T21:46:04.242Z,12.92
2019-03-27T21:48:37.462Z,12.64
2019-03-27T21:51:10.681Z,12.57
2019-03-27T21:53:43.336Z,12.44
2019-03-27T21:56:16.012Z,12.38
2019-03-27T21:58:50.184Z,12.31
2019-03-27T22:01:24.436Z,12.37
2019-03-27T22:03:57.080Z,12.39
2019-03-27T22:06:30.148Z,12.25
2019-03-27T22:09:03.863Z,12.13
2019-03-27T22:11:37.756Z,12.01
2019-03-27T22:14:11.422Z,11.99
2019-03-27T22:16:44.078Z,11.92
2019-03-27T22:19:16.733Z,11.97
2019-03-27T22:21:49.711Z,11.88
2019-03-27T22:24:22.361Z,11.91
2019-03-27T22:26:55.050Z,11.99
2019-03-27T22:29:27.728Z,12.12
2019-03-27T22:32:00.815Z,12.16
2019-03-27T22:34:33.475Z,12.22
2019-03-27T22:37:06.119Z,12.18
2019-03-27T22:39:38.858Z,12.17
2019-03-27T22:42:11.555Z,11.92
2019-03-27T22:44:44.196Z,11.81
2019-03-27T22:47:16.835Z,11.74
2019-03-27T22:49:49.507Z,11.72
2019-03-27T22:52:22.165Z,11.78
2019-03-27T22:54:54.819Z,11.79
2019-03-27T22:57:27.497Z,11.73
2019-03-27T23:00:00.369Z,11.60
2019-03-27T23:02:33.229Z,11.49
2019-03-27T23:05:07.763Z,11.37
2019-03-27T23:07:40.490Z,11.26
2019-03-27T23:10:13.239Z,11.20
2019-03-27T23:12:47.174Z,11.08
2019-03-27T23:15:19.827Z,11.09
2019-03-27T23:17:52.531Z,10.96
2019-03-27T23:20:25.188Z,10.87
2019-03-27T23:22:57.847Z,10.75
2019-03-27T23:25:30.522Z,10.74
2019-03-27T23:28:03.222Z,10.59
2019-03-27T23:30:36.003Z,10.70
2019-03-27T23:33:09.095Z,10.83
2019-03-27T23:35:41.792Z,10.89
2019-03-27T23:38:14.470Z,10.96
2019-03-27T23:40:47.187Z,10.95
2019-03-27T23:43:19.844Z,10.75
2019-03-27T23:45:52.520Z,10.63
2019-03-27T23:48:25.365Z,10.45
2019-03-27T23:50:58.047Z,10.24
2019-03-27T23:53:30.715Z,10.19
2019-03-27T23:56:16.003Z,10.13
2019-03-27T23:58:39.232Z,10.07
